Observations for Trim Market St
| Time | AQI | Temp °C | Hum % | Pres Pa | CO μg/m³ | H₂S μg/m³ | NO μg/m³ | NO₂ μg/m³ | O₃ μg/m³ | SO₂ μg/m³ | PM1 μg/m³ | PM2.5 μg/m³ | PM10 μg/m³ |
|---|---|---|---|---|---|---|---|---|---|---|---|---|---|
| Monday 17 August 2026 | |||||||||||||
| 10:51 | 2 | 21.7 | 65 | 55,990 | 0.1 | 0 | 1.82 | 8.56 | 59 | 0 | 0 | 1.3 | 2.29 |
| 10:40 | 2 | 21.7 | 64 | 56,617 | 0 | 0 | 2.95 | 6.57 | 52.42 | 0 | 0.71 | 2.83 | 4.23 |
| 10:39 | 2 | 21.7 | 64 | 56,638 | 0 | 0 | 2.95 | 6.14 | 49.45 | 0 | 0.71 | 2.33 | 3.57 |
| 10:38 | 2 | 21.8 | 64 | 56,654 | 0 | 0 | 2.89 | 6.19 | 52.3 | 0 | 0.71 | 2.83 | 4.22 |
| 10:37 | 2 | 21.8 | 64 | 56,675 | 0.07 | 0 | 3.03 | 9.4 | 40.67 | 0 | 0.71 | 2.34 | 3.56 |
| 10:36 | 2 | 21.9 | 64 | 56,712 | 0 | 0 | 3 | 5.62 | 48.51 | 0 | 0.71 | 2.84 | 4.22 |
| 10:34 | 2 | 21.9 | 64 | 56,750 | 0 | 0 | 2.91 | 8.38 | 41.53 | 0 | 0.71 | 2.35 | 3.55 |
| 10:33 | 2 | 22 | 64 | 56,777 | 0 | 0 | 2.98 | 6.76 | 47.13 | 0 | 0.71 | 2.85 | 4.88 |
| 10:32 | 2 | 22 | 64 | 56,793 | 0 | 0 | 3.04 | 6.33 | 41.59 | 0 | 0 | 2.85 | 4.21 |
| 10:31 | 2 | 22 | 64 | 56,802 | 0 | 0 | 3.49 | 5.4 | 43.54 | 0 | 0.71 | 2.35 | 3.55 |
| 10:30 | 2 | 22.1 | 64 | 56,804 | 0 | 0 | 3.4 | 6.48 | 43.28 | 0 | 1.43 | 3.84 | 6.2 |
| 10:20 | 2 | 22.2 | 65 | 56,681 | 0.09 | 0 | 2.34 | 6.53 | 30.46 | 0 | 0.71 | 3.31 | 4.89 |
| 10:19 | 2 | 22.2 | 65 | 56,634 | 0.02 | 0 | 1.97 | 4.76 | 32.92 | 0 | 1.43 | 3.3 | 4.9 |
| 10:18 | 2 | 22.2 | 65 | 56,576 | 0.02 | 0 | 1.69 | 4.35 | 39.73 | 0 | 1.43 | 3.79 | 5.56 |
| 10:17 | 2 | 22.2 | 65 | 56,505 | 0.01 | 0 | 1.97 | 3.36 | 37.02 | 0 | 2.14 | 3.78 | 6.22 |
| 10:09 | 2 | 22.1 | 66 | 56,054 | 0.1 | 0 | 3.18 | 5.88 | 26.38 | 0 | 1.43 | 3.24 | 6.23 |
| 10:08 | 2 | 22 | 66 | 56,005 | 0.09 | 0 | 3.22 | 5.24 | 29.88 | 0 | 2.14 | 5.2 | 8.18 |
| 10:07 | 2 | 22 | 66 | 55,972 | 0.21 | 0 | 3.01 | 5.73 | 19.2 | 0 | 2.14 | 3.72 | 6.23 |
| 10:06 | 2 | 22 | 66 | 55,952 | 0.17 | 0 | 3.09 | 5.72 | 27.35 | 0 | 0.71 | 2.74 | 4.29 |
| 10:05 | 2 | 22 | 66 | 55,920 | 0.13 | 0 | 3.33 | 5.2 | 33.44 | 0 | 1.43 | 3.22 | 6.23 |